Time;durP1;ratioP1;P1;durP2;ratioP2;P2;SDS_P1;SDS_P2;PMS_P1;PMS_P2;Temp;Humidity;BMP_temperature;BMP_pressure;BME280_temperature;BME280_humidity;BME280_pressure;Samples;Min_cycle;Max_cycle;Signal;HPM_P1;HPM_P2
2024/02/29 00:00:59;;;;;;;45.10;31.13;;;2.60;99.90;;;;;;4870224;29;20207;-76
2024/02/29 00:03:25;;;;;;;46.00;30.97;;;2.70;99.90;;;;;;4840480;29;20295;-76
2024/02/29 00:05:53;;;;;;;45.97;32.87;;;2.70;99.90;;;;;;4870246;29;20210;-76
2024/02/29 00:08:20;;;;;;;39.50;28.70;;;2.70;99.90;;;;;;4870645;29;20255;-76
2024/02/29 00:10:48;;;;;;;36.83;27.50;;;2.60;99.90;;;;;;4840774;29;20207;-76
2024/02/29 00:13:15;;;;;;;37.10;27.87;;;2.50;99.90;;;;;;4870372;29;20717;-77
2024/02/29 00:15:42;;;;;;;42.43;29.57;;;2.50;99.90;;;;;;4840908;29;20234;-76
2024/02/29 00:18:09;;;;;;;38.50;29.17;;;2.60;99.90;;;;;;4869919;29;20207;-76
2024/02/29 00:20:36;;;;;;;39.70;29.90;;;2.60;99.90;;;;;;4839809;29;20250;-76
2024/02/29 00:23:04;;;;;;;46.60;31.83;;;2.60;99.90;;;;;;4840665;29;20646;-76
2024/02/29 00:25:30;;;;;;;46.10;33.37;;;2.60;99.90;;;;;;4843385;29;20293;-76
2024/02/29 00:27:59;;;;;;;46.43;33.77;;;2.50;99.90;;;;;;4874195;29;20225;-77
2024/02/29 00:30:26;;;;;;;50.63;35.93;;;2.50;99.90;;;;;;4844367;29;20198;-77
2024/02/29 00:32:55;;;;;;;48.40;34.53;;;2.60;99.90;;;;;;4842585;29;20242;-76
2024/02/29 00:35:21;;;;;;;46.13;33.00;;;2.50;99.90;;;;;;4844469;29;20205;-76
2024/02/29 00:37:49;;;;;;;42.43;32.80;;;2.40;99.90;;;;;;4844392;29;20210;-76
2024/02/29 00:40:16;;;;;;;45.30;32.37;;;2.40;99.90;;;;;;4837018;29;20222;-76
2024/02/29 00:42:43;;;;;;;45.07;31.43;;;2.30;99.90;;;;;;4844209;29;20218;-77
2024/02/29 00:45:11;;;;;;;46.23;33.00;;;2.20;99.90;;;;;;4873663;29;20687;-77
2024/02/29 00:47:38;;;;;;;44.67;31.87;;;2.20;99.90;;;;;;4873834;29;20494;-77
2024/02/29 00:50:07;;;;;;;40.17;32.03;;;2.20;99.90;;;;;;4873693;29;20483;-76
2024/02/29 00:52:34;;;;;;;43.47;32.20;;;2.20;99.90;;;;;;4844088;29;20293;-76
2024/02/29 00:55:03;;;;;;;46.07;31.70;;;2.20;99.90;;;;;;4873800;29;20221;-76
2024/02/29 00:57:29;;;;;;;44.33;31.40;;;2.20;99.90;;;;;;4844147;29;20215;-76
2024/02/29 00:59:56;;;;;;;46.67;33.30;;;2.20;99.90;;;;;;4873216;29;20279;-76
2024/02/29 01:02:24;;;;;;;41.30;30.83;;;2.20;99.90;;;;;;4873316;29;20206;-75
2024/02/29 01:04:51;;;;;;;39.47;30.70;;;2.20;99.90;;;;;;4873629;29;20210;-76
2024/02/29 01:07:18;;;;;;;44.67;31.70;;;2.10;99.90;;;;;;4842729;29;20214;-76
2024/02/29 01:09:45;;;;;;;42.53;33.10;;;2.10;99.90;;;;;;4842801;29;20234;-76
2024/02/29 01:12:11;;;;;;;40.33;30.40;;;2.10;99.90;;;;;;4873523;29;20215;-77
2024/02/29 01:14:38;;;;;;;44.37;32.43;;;2.10;99.90;;;;;;4873204;29;20246;-76
2024/02/29 01:17:05;;;;;;;44.73;32.57;;;2.10;99.90;;;;;;4873409;29;20215;-76
2024/02/29 01:19:33;;;;;;;43.43;31.97;;;2.10;99.90;;;;;;4872995;29;20254;-77
2024/02/29 01:22:02;;;;;;;45.70;33.40;;;2.00;99.90;;;;;;4873141;29;20642;-76
2024/02/29 01:24:28;;;;;;;42.40;31.47;;;1.90;99.90;;;;;;4873121;29;20230;-76
2024/02/29 01:26:55;;;;;;;42.43;30.90;;;1.90;99.90;;;;;;4843904;29;20206;-77
2024/02/29 01:29:22;;;;;;;43.77;32.30;;;1.80;99.90;;;;;;4843425;29;20191;-76
2024/02/29 01:31:49;;;;;;;42.87;31.20;;;1.80;99.90;;;;;;4843652;29;20228;-76
2024/02/29 01:34:16;;;;;;;39.27;29.43;;;1.70;99.90;;;;;;4872513;29;20222;-76
2024/02/29 01:36:45;;;;;;;41.00;30.50;;;1.70;99.90;;;;;;4843350;29;20722;-77
2024/02/29 01:39:12;;;;;;;40.47;30.03;;;1.70;99.90;;;;;;4872787;29;20234;-76
2024/02/29 01:41:39;;;;;;;45.57;31.57;;;1.70;99.90;;;;;;4841558;29;20452;-76
2024/02/29 01:44:06;;;;;;;38.50;28.57;;;1.70;99.90;;;;;;4872775;29;20738;-76
2024/02/29 01:46:33;;;;;;;47.13;31.17;;;1.70;99.90;;;;;;4843121;29;20230;-76
2024/02/29 01:49:01;;;;;;;38.83;30.10;;;1.70;99.90;;;;;;4872479;29;20475;-76
2024/02/29 01:51:29;;;;;;;40.87;29.90;;;1.70;99.90;;;;;;4872653;29;20642;-76
2024/02/29 01:53:57;;;;;;;39.80;29.57;;;1.70;99.90;;;;;;4842695;29;20498;-76
2024/02/29 01:56:26;;;;;;;44.13;30.67;;;1.70;99.90;;;;;;4872603;29;20206;-76
2024/02/29 01:58:56;;;;;;;41.17;31.10;;;1.70;99.90;;;;;;4842888;29;20827;-76
2024/02/29 02:01:23;;;;;;;40.63;30.60;;;1.80;99.90;;;;;;4849693;29;20691;-76
2024/02/29 02:03:50;;;;;;;39.53;31.00;;;1.70;99.90;;;;;;4842606;29;20298;-76
2024/02/29 02:06:17;;;;;;;39.30;29.20;;;1.70;99.90;;;;;;4842840;29;20233;-76
2024/02/29 02:08:44;;;;;;;44.40;33.37;;;1.80;99.90;;;;;;4841434;29;20260;-76
2024/02/29 02:11:12;;;;;;;46.73;30.77;;;1.80;99.90;;;;;;4872233;29;20211;-77
2024/02/29 02:13:39;;;;;;;38.60;28.90;;;1.80;99.90;;;;;;4872284;29;20250;-76
2024/02/29 02:16:08;;;;;;;39.00;30.13;;;1.70;99.90;;;;;;4842710;29;20202;-77
2024/02/29 02:18:35;;;;;;;43.97;31.07;;;1.70;99.90;;;;;;4872475;29;20218;-76
2024/02/29 02:21:03;;;;;;;41.83;31.83;;;1.60;99.90;;;;;;4871871;29;20681;-76
2024/02/29 02:23:30;;;;;;;44.77;31.43;;;1.60;99.90;;;;;;4842888;29;20237;-76
2024/02/29 02:25:59;;;;;;;37.50;29.33;;;1.50;99.90;;;;;;4872120;29;20294;-76
2024/02/29 02:28:27;;;;;;;43.97;32.33;;;1.40;99.90;;;;;;4842388;29;20796;-76
2024/02/29 02:30:53;;;;;;;44.27;31.87;;;1.40;99.90;;;;;;4872530;29;20632;-76
2024/02/29 02:33:21;;;;;;;47.40;34.17;;;1.30;99.90;;;;;;4842402;29;20237;-76
2024/02/29 02:35:47;;;;;;;44.93;33.13;;;1.40;99.90;;;;;;4871736;29;20452;-76
2024/02/29 02:38:16;;;;;;;41.97;31.57;;;1.40;99.90;;;;;;4872116;29;20868;-76
2024/02/29 02:40:42;;;;;;;43.97;32.77;;;1.40;99.90;;;;;;4841968;29;20514;-76
2024/02/29 02:43:09;;;;;;;44.73;33.80;;;1.40;99.90;;;;;;4842047;29;20233;-76
2024/02/29 02:45:36;;;;;;;45.00;33.33;;;1.40;99.90;;;;;;4842115;29;20237;-76
2024/02/29 02:48:03;;;;;;;45.70;32.57;;;1.40;99.90;;;;;;4841553;29;20450;-76
2024/02/29 02:50:30;;;;;;;46.80;32.77;;;1.40;99.90;;;;;;4841776;29;20887;-77
2024/02/29 02:52:57;;;;;;;47.10;34.50;;;1.40;99.90;;;;;;4871648;29;20698;-76
2024/02/29 02:55:25;;;;;;;44.93;33.70;;;1.50;99.90;;;;;;4841917;29;20451;-76
2024/02/29 02:57:52;;;;;;;47.20;33.10;;;1.40;99.90;;;;;;4840576;29;20338;-76
2024/02/29 03:00:19;;;;;;;47.47;34.63;;;1.40;99.90;;;;;;4871270;29;20766;-76
2024/02/29 03:02:46;;;;;;;58.37;38.43;;;1.50;99.90;;;;;;4841262;29;20891;-76
2024/02/29 03:05:13;;;;;;;55.77;36.30;;;1.50;99.90;;;;;;4871402;29;20218;-76
2024/02/29 03:07:39;;;;;;;53.53;36.97;;;1.50;99.90;;;;;;4841772;29;20539;-76
2024/02/29 03:10:08;;;;;;;48.07;34.50;;;1.50;99.90;;;;;;4841402;29;20444;-76
2024/02/29 03:12:37;;;;;;;47.63;32.77;;;1.50;99.90;;;;;;4841538;29;20726;-76
2024/02/29 03:15:05;;;;;;;56.57;36.20;;;1.50;99.90;;;;;;4841531;29;20884;-76
2024/02/29 03:17:31;;;;;;;43.80;33.50;;;1.50;99.90;;;;;;4871036;29;20686;-76
2024/02/29 03:19:58;;;;;;;42.67;33.17;;;1.40;99.90;;;;;;4841434;29;20488;-76
2024/02/29 03:22:25;;;;;;;53.00;34.83;;;1.40;99.90;;;;;;4841412;29;20230;-76
2024/02/29 03:24:52;;;;;;;54.63;36.03;;;1.40;99.90;;;;;;4840480;29;20259;-76
2024/02/29 03:27:19;;;;;;;43.13;33.13;;;1.40;99.90;;;;;;4870940;29;20202;-76
2024/02/29 03:29:47;;;;;;;49.40;35.37;;;1.40;99.90;;;;;;4870676;29;20451;-76
2024/02/29 03:32:14;;;;;;;51.80;35.97;;;1.40;99.90;;;;;;4841422;29;20210;-75
2024/02/29 03:34:41;;;;;;;50.47;34.33;;;1.50;99.90;;;;;;4841316;29;20451;-76
2024/02/29 03:37:07;;;;;;;49.67;33.67;;;1.50;99.90;;;;;;4870897;29;20451;-76
2024/02/29 03:39:34;;;;;;;57.50;36.33;;;1.50;99.90;;;;;;4840971;29;20229;-76
2024/02/29 03:42:01;;;;;;;40.93;33.03;;;1.50;99.90;;;;;;4841666;29;20646;-76
2024/02/29 03:44:29;;;;;;;39.30;32.27;;;1.50;99.90;;;;;;4841279;29;20233;-76
2024/02/29 03:46:57;;;;;;;41.80;32.07;;;1.60;99.90;;;;;;4870871;29;20508;-77
2024/02/29 03:49:26;;;;;;;50.23;34.50;;;1.60;99.90;;;;;;4840882;29;20575;-76
2024/02/29 03:51:53;;;;;;;46.93;35.07;;;1.60;99.90;;;;;;4838221;29;20207;-77
2024/02/29 03:54:19;;;;;;;46.13;33.73;;;1.60;99.90;;;;;;4840399;29;20287;-76
2024/02/29 03:56:47;;;;;;;44.57;34.33;;;1.60;99.90;;;;;;4839739;29;20203;-76
2024/02/29 03:59:13;;;;;;;42.27;33.00;;;1.60;99.90;;;;;;4835624;29;20538;-76
2024/02/29 04:01:40;;;;;;;40.40;31.57;;;1.60;99.90;;;;;;4867953;29;20558;-76
2024/02/29 04:04:08;;;;;;;43.80;33.77;;;1.60;99.90;;;;;;4864455;29;20238;-76
2024/02/29 04:06:35;;;;;;;39.30;31.87;;;1.60;99.90;;;;;;4863832;29;20521;-76
2024/02/29 04:09:02;;;;;;;38.87;31.57;;;1.60;99.90;;;;;;4870742;29;20201;-76
2024/02/29 04:11:29;;;;;;;38.40;31.57;;;1.60;99.90;;;;;;4841076;29;20486;-76
2024/02/29 04:13:56;;;;;;;40.10;32.50;;;1.50;99.90;;;;;;4869838;29;20502;-76
2024/02/29 04:16:25;;;;;;;45.47;31.83;;;1.50;99.90;;;;;;4841200;29;20476;-79
2024/02/29 04:18:52;;;;;;;41.30;31.93;;;1.50;99.90;;;;;;4839776;29;20803;-76
2024/02/29 04:21:20;;;;;;;33.87;29.97;;;1.40;99.90;;;;;;4839262;29;21050;-75
2024/02/29 04:23:47;;;;;;;38.00;30.87;;;1.40;99.90;;;;;;4840934;29;20524;-76
2024/02/29 04:26:14;;;;;;;41.17;33.17;;;1.40;99.90;;;;;;4841077;29;20458;-76
2024/02/29 04:28:41;;;;;;;45.57;33.93;;;1.50;99.90;;;;;;4841944;29;20475;-76
2024/02/29 04:31:07;;;;;;;46.77;32.27;;;1.50;99.90;;;;;;4841666;29;20444;-76
2024/02/29 04:33:34;;;;;;;39.97;32.90;;;1.40;99.90;;;;;;4841548;29;20886;-77
2024/02/29 04:36:01;;;;;;;35.47;30.23;;;1.50;99.90;;;;;;4872236;29;20674;-76
2024/02/29 04:38:29;;;;;;;37.83;31.30;;;1.50;99.90;;;;;;4843060;29;20517;-76
2024/02/29 04:40:56;;;;;;;42.17;32.87;;;1.50;99.90;;;;;;4842261;29;20475;-76
2024/02/29 04:43:23;;;;;;;35.83;31.60;;;1.60;99.90;;;;;;4841162;29;20278;-76
2024/02/29 04:45:54;;;;;;;40.67;30.27;;;1.50;99.90;;;;;;4839112;29;20702;-76
2024/02/29 04:48:21;;;;;;;35.47;29.80;;;1.40;99.90;;;;;;4846022;29;20276;-76
2024/02/29 04:50:48;;;;;;;33.27;29.33;;;1.30;99.90;;;;;;4869827;29;21023;-76
2024/02/29 04:53:15;;;;;;;34.00;29.27;;;1.30;99.90;;;;;;4840288;29;20271;-76
2024/02/29 04:55:44;;;;;;;33.00;29.33;;;1.20;99.90;;;;;;4840056;29;20440;-76
2024/02/29 04:58:11;;;;;;;33.60;29.90;;;1.30;99.90;;;;;;4872544;29;20199;-75
2024/02/29 05:00:37;;;;;;;34.03;29.43;;;1.30;99.90;;;;;;4839870;29;20489;-77
2024/02/29 05:03:05;;;;;;;33.60;29.53;;;1.30;99.90;;;;;;4869316;29;20854;-75
2024/02/29 05:05:32;;;;;;;29.90;26.67;;;1.30;99.90;;;;;;4839874;29;20245;-77
2024/02/29 05:08:00;;;;;;;31.00;26.77;;;1.30;99.90;;;;;;4839964;29;20237;-76
2024/02/29 05:10:28;;;;;;;36.03;29.57;;;1.20;99.90;;;;;;4870027;29;20511;-76
2024/02/29 05:12:56;;;;;;;33.77;29.43;;;1.20;99.90;;;;;;4873083;29;20482;-76
2024/02/29 05:15:23;;;;;;;30.87;27.43;;;1.20;99.90;;;;;;4843092;29;20471;-77
2024/02/29 05:17:50;;;;;;;32.80;28.07;;;1.30;99.90;;;;;;4873272;29;20459;-76
2024/02/29 05:20:17;;;;;;;34.33;29.60;;;1.30;99.90;;;;;;4872386;29;20479;-75
2024/02/29 05:22:44;;;;;;;30.90;27.73;;;1.30;99.90;;;;;;4872878;29;20562;-76
2024/02/29 05:25:11;;;;;;;31.40;28.23;;;1.30;99.90;;;;;;4872685;29;20452;-76
2024/02/29 05:27:38;;;;;;;31.33;28.03;;;1.30;99.90;;;;;;4872578;29;20451;-77
2024/02/29 05:30:07;;;;;;;30.63;27.40;;;1.30;99.90;;;;;;4872687;29;20459;-76
2024/02/29 05:32:34;;;;;;;32.37;27.10;;;1.30;99.90;;;;;;4842916;29;20879;-76
2024/02/29 05:35:01;;;;;;;29.70;26.60;;;1.20;99.90;;;;;;4873175;29;20456;-78
2024/02/29 05:37:29;;;;;;;33.47;29.47;;;1.20;99.90;;;;;;4844195;29;20443;-77
2024/02/29 05:39:58;;;;;;;33.87;27.73;;;1.20;99.90;;;;;;4873914;29;20463;-77
2024/02/29 05:42:26;;;;;;;28.53;25.60;;;1.20;99.90;;;;;;4874481;29;20512;-76
2024/02/29 05:44:53;;;;;;;34.50;27.47;;;1.20;99.90;;;;;;4874305;29;20502;-77
2024/02/29 05:47:21;;;;;;;29.40;26.43;;;1.10;99.90;;;;;;4843478;29;20447;-77
2024/02/29 05:49:49;;;;;;;28.60;25.67;;;1.10;99.90;;;;;;4873028;29;20484;-78
2024/02/29 05:52:16;;;;;;;28.73;25.83;;;1.10;99.90;;;;;;4873073;29;20199;-77
2024/02/29 05:54:43;;;;;;;30.03;26.97;;;1.20;99.90;;;;;;4872863;29;20213;-77
2024/02/29 05:57:09;;;;;;;28.87;25.80;;;1.10;99.90;;;;;;4843509;29;20238;-77
2024/02/29 05:59:36;;;;;;;30.17;26.97;;;1.10;99.90;;;;;;4843135;29;20451;-77
2024/02/29 06:02:03;;;;;;;28.50;25.60;;;1.10;99.90;;;;;;4847987;29;20529;-76
2024/02/29 06:04:31;;;;;;;27.67;24.97;;;1.20;99.90;;;;;;4842363;29;20306;-76
2024/02/29 06:06:58;;;;;;;28.37;25.43;;;1.20;99.90;;;;;;4843427;29;20440;-77
2024/02/29 06:09:25;;;;;;;27.50;24.80;;;1.20;99.90;;;;;;4872249;29;20230;-77
2024/02/29 06:11:51;;;;;;;38.93;28.53;;;1.20;99.90;;;;;;4843942;29;20451;-77
2024/02/29 06:14:18;;;;;;;28.73;25.20;;;1.20;99.90;;;;;;4842742;29;20482;-78
2024/02/29 06:16:45;;;;;;;32.13;28.60;;;1.20;99.90;;;;;;4873203;29;20490;-77
2024/02/29 06:19:12;;;;;;;29.10;26.20;;;1.30;99.90;;;;;;4872832;29;20859;-77
2024/02/29 06:21:41;;;;;;;30.93;27.27;;;1.40;99.90;;;;;;4872507;29;20219;-77
2024/02/29 06:24:08;;;;;;;29.50;26.43;;;1.30;99.90;;;;;;4872643;29;20463;-77
2024/02/29 06:26:35;;;;;;;30.43;27.23;;;1.20;99.90;;;;;;4842002;29;20520;-78
2024/02/29 06:29:02;;;;;;;36.53;25.80;;;1.20;99.90;;;;;;4842041;29;20439;-78
2024/02/29 06:31:29;;;;;;;29.53;26.47;;;1.20;99.90;;;;;;4842844;29;20451;-77
2024/02/29 06:33:56;;;;;;;28.33;25.53;;;1.20;99.90;;;;;;4872691;29;20475;-76
2024/02/29 06:36:23;;;;;;;31.93;28.30;;;1.20;99.90;;;;;;4844145;29;20541;-77
2024/02/29 06:38:52;;;;;;;27.33;24.63;;;1.30;99.90;;;;;;4842869;29;20443;-77
2024/02/29 06:41:18;;;;;;;30.93;26.30;;;1.30;99.90;;;;;;4842868;29;20483;-78
2024/02/29 06:43:45;;;;;;;30.50;26.10;;;1.30;99.90;;;;;;4843051;29;20218;-77
2024/02/29 06:46:12;;;;;;;29.83;26.73;;;1.40;99.90;;;;;;4843003;29;20539;-77
2024/02/29 06:48:39;;;;;;;29.33;26.23;;;1.50;99.90;;;;;;4872725;29;20213;-77
2024/02/29 06:51:06;;;;;;;27.97;25.03;;;1.50;99.90;;;;;;4872157;29;20450;-77
2024/02/29 06:53:33;;;;;;;28.00;25.03;;;1.60;99.90;;;;;;4872386;29;20230;-76
2024/02/29 06:56:03;;;;;;;28.70;25.47;;;1.60;99.90;;;;;;4841357;29;20906;-77
2024/02/29 06:58:32;;;;;;;27.17;24.40;;;1.70;99.90;;;;;;4872254;29;20599;-76
2024/02/29 07:01:00;;;;;;;27.00;24.20;;;1.70;99.90;;;;;;4841958;29;20214;-77
2024/02/29 07:03:26;;;;;;;27.43;24.77;;;1.70;99.90;;;;;;4842561;29;20744;-77
2024/02/29 07:05:54;;;;;;;26.97;24.17;;;1.80;99.90;;;;;;4842519;29;20634;-77
2024/02/29 07:08:21;;;;;;;27.83;24.80;;;1.80;99.90;;;;;;4841928;29;20203;-77
2024/02/29 07:10:49;;;;;;;25.20;22.60;;;1.80;99.90;;;;;;4871866;29;20852;-77
2024/02/29 07:13:17;;;;;;;25.70;23.20;;;1.80;99.90;;;;;;4842490;29;20229;-77
2024/02/29 07:15:44;;;;;;;25.67;23.17;;;1.90;99.90;;;;;;4872101;29;20238;-77
2024/02/29 07:18:11;;;;;;;25.90;23.27;;;1.90;99.90;;;;;;4842671;29;20465;-77
2024/02/29 07:20:38;;;;;;;26.77;23.93;;;2.00;99.90;;;;;;4842594;29;20199;-77
2024/02/29 07:23:05;;;;;;;27.20;24.37;;;2.00;99.90;;;;;;4841312;29;20763;-77
2024/02/29 07:25:31;;;;;;;27.20;24.50;;;2.00;99.90;;;;;;4843098;29;20211;-77
2024/02/29 07:27:58;;;;;;;25.97;23.37;;;2.10;99.90;;;;;;4841756;29;20214;-77
2024/02/29 07:30:29;;;;;;;26.70;24.10;;;2.20;99.90;;;;;;4842742;29;20203;-77
2024/02/29 07:32:57;;;;;;;26.07;23.43;;;2.10;99.90;;;;;;4842471;29;20230;-77
2024/02/29 07:35:24;;;;;;;25.57;22.87;;;2.20;99.90;;;;;;4842679;29;20286;-77
2024/02/29 07:37:51;;;;;;;23.73;21.33;;;2.20;99.90;;;;;;4842649;29;20210;-76
2024/02/29 07:40:18;;;;;;;23.10;20.73;;;2.20;99.90;;;;;;4841588;29;20199;-77
2024/02/29 07:42:45;;;;;;;23.77;21.27;;;2.20;99.90;;;;;;4864722;29;20253;-77
2024/02/29 07:45:12;;;;;;;22.97;20.57;;;2.20;99.90;;;;;;4839423;29;20624;-77
2024/02/29 07:47:40;;;;;;;24.10;21.67;;;2.30;99.90;;;;;;4861834;29;20275;-78
2024/02/29 07:50:09;;;;;;;23.03;20.80;;;2.20;99.90;;;;;;4870510;29;20202;-77
2024/02/29 07:52:37;;;;;;;25.57;22.97;;;2.20;99.90;;;;;;4872165;29;20225;-77
2024/02/29 07:55:05;;;;;;;23.83;21.53;;;2.20;99.90;;;;;;4842604;29;20555;-77
2024/02/29 07:57:32;;;;;;;25.07;22.57;;;2.30;99.90;;;;;;4875768;29;20211;-77
2024/02/29 07:59:59;;;;;;;25.17;22.67;;;2.30;99.90;;;;;;4875924;29;20698;-77
2024/02/29 08:02:26;;;;;;;25.03;22.47;;;2.40;99.90;;;;;;4872980;29;20230;-77
2024/02/29 08:04:54;;;;;;;25.30;22.77;;;2.40;99.90;;;;;;4843099;29;20706;-77
2024/02/29 08:07:21;;;;;;;28.77;23.83;;;2.50;99.90;;;;;;4871810;29;20227;-77
2024/02/29 08:09:48;;;;;;;25.77;23.23;;;2.50;99.90;;;;;;4870215;29;20202;-77
2024/02/29 08:12:15;;;;;;;24.73;22.43;;;2.40;99.90;;;;;;4839987;29;20251;-77
2024/02/29 08:14:41;;;;;;;24.67;22.27;;;2.60;99.90;;;;;;4841613;29;20550;-77
2024/02/29 08:17:08;;;;;;;24.10;21.80;;;2.70;99.90;;;;;;4841741;29;20246;-77
2024/02/29 08:19:36;;;;;;;25.87;23.27;;;2.80;99.90;;;;;;4870777;29;20214;-77
2024/02/29 08:22:04;;;;;;;24.50;22.00;;;2.90;99.90;;;;;;4855629;29;20236;-78
2024/02/29 08:24:31;;;;;;;24.50;22.27;;;3.00;99.90;;;;;;4871990;29;20226;-79
2024/02/29 08:26:58;;;;;;;25.70;23.10;;;3.10;99.90;;;;;;4837600;29;20214;-77
2024/02/29 08:29:25;;;;;;;27.83;24.93;;;3.30;99.90;;;;;;4871435;29;20694;-77
2024/02/29 08:31:51;;;;;;;27.00;24.20;;;3.30;99.90;;;;;;4871421;29;20211;-77
2024/02/29 08:34:19;;;;;;;24.37;21.87;;;3.40;99.90;;;;;;4841409;29;20222;-77
2024/02/29 08:36:46;;;;;;;25.53;22.97;;;3.60;99.90;;;;;;4871760;29;20556;-78
2024/02/29 08:39:15;;;;;;;24.43;22.07;;;3.70;99.90;;;;;;4841650;29;20698;-77
2024/02/29 08:41:42;;;;;;;23.50;21.20;;;3.80;99.90;;;;;;4870491;29;20328;-77
2024/02/29 08:44:09;;;;;;;24.93;22.63;;;3.80;99.90;;;;;;4871307;29;20280;-78
2024/02/29 08:46:35;;;;;;;23.93;21.60;;;3.80;99.90;;;;;;4843571;29;20224;-77
2024/02/29 08:49:02;;;;;;;24.00;21.90;;;3.80;99.90;;;;;;4874936;29;20207;-77
2024/02/29 08:51:29;;;;;;;21.67;19.77;;;4.00;99.90;;;;;;4845438;29;20287;-77
2024/02/29 08:53:56;;;;;;;23.03;20.87;;;4.10;99.90;;;;;;4844895;29;20259;-77
2024/02/29 08:56:24;;;;;;;23.40;21.10;;;4.10;99.90;;;;;;4874706;29;20266;-77
2024/02/29 08:58:51;;;;;;;25.47;22.97;;;4.10;99.90;;;;;;4845989;29;20637;-77
2024/02/29 09:01:19;;;;;;;24.97;22.47;;;4.10;99.90;;;;;;4846274;29;20229;-77
2024/02/29 09:03:46;;;;;;;22.77;20.67;;;4.20;99.90;;;;;;4846541;29;20612;-77
2024/02/29 09:06:13;;;;;;;25.30;22.83;;;4.30;99.90;;;;;;4846393;29;20648;-77
2024/02/29 09:08:40;;;;;;;24.03;21.83;;;4.30;99.90;;;;;;4846189;29;20209;-76
2024/02/29 09:11:08;;;;;;;25.40;23.00;;;4.40;99.90;;;;;;4845688;29;20227;-77
2024/02/29 09:13:37;;;;;;;24.73;22.37;;;4.40;99.90;;;;;;4846158;29;20700;-77
2024/02/29 09:16:04;;;;;;;24.97;22.37;;;4.50;99.90;;;;;;4844275;29;20208;-77
2024/02/29 09:18:31;;;;;;;23.43;21.13;;;4.60;99.90;;;;;;4841771;29;20212;-77
2024/02/29 09:20:57;;;;;;;24.37;21.97;;;4.70;99.90;;;;;;4833678;29;20201;-77
2024/02/29 09:23:26;;;;;;;22.23;20.13;;;4.90;99.90;;;;;;4869464;29;20256;-77
2024/02/29 09:25:52;;;;;;;22.03;19.93;;;5.00;99.90;;;;;;4842776;29;20213;-77
2024/02/29 09:28:19;;;;;;;23.70;21.30;;;5.00;99.90;;;;;;4846097;29;20207;-77
2024/02/29 09:30:47;;;;;;;23.60;21.30;;;5.10;99.90;;;;;;4874834;29;20217;-77
2024/02/29 09:33:14;;;;;;;24.77;22.17;;;5.30;99.90;;;;;;4874619;29;20229;-77
2024/02/29 09:35:41;;;;;;;23.97;21.53;;;5.20;99.90;;;;;;4844942;29;20234;-77
2024/02/29 09:38:08;;;;;;;22.70;20.27;;;5.30;99.90;;;;;;4866410;29;20209;-77
2024/02/29 09:40:35;;;;;;;24.03;21.43;;;5.30;99.90;;;;;;4873746;29;20240;-78
2024/02/29 09:43:02;;;;;;;23.23;20.80;;;5.40;99.90;;;;;;4896288;23;20662;-78
2024/02/29 09:45:34;;;;;;;23.90;21.50;;;5.60;99.90;;;;;;4862368;29;20255;-79
2024/02/29 09:48:05;;;;;;;22.40;20.03;;;5.70;99.90;;;;;;4861698;29;20300;-79
2024/02/29 09:50:32;;;;;;;20.93;18.73;;;5.90;99.90;;;;;;4861707;29;20240;-79
2024/02/29 09:53:01;;;;;;;22.13;20.10;;;6.10;99.90;;;;;;4862093;29;20210;-79
2024/02/29 09:55:31;;;;;;;23.43;21.10;;;6.20;99.90;;;;;;4853217;29;20253;-79
2024/02/29 09:57:59;;;;;;;22.57;20.43;;;6.30;99.90;;;;;;4855194;29;20218;-79
2024/02/29 10:00:26;;;;;;;22.77;20.43;;;6.40;99.90;;;;;;4845017;29;20266;-79
2024/02/29 10:02:54;;;;;;;24.23;21.63;;;6.30;99.90;;;;;;4845676;29;20227;-79
2024/02/29 10:05:22;;;;;;;21.57;19.57;;;6.40;99.90;;;;;;4843146;29;20213;-79
2024/02/29 10:07:49;;;;;;;23.23;20.93;;;6.50;99.90;;;;;;4844331;29;20206;-79
2024/02/29 10:10:17;;;;;;;24.27;21.80;;;6.60;99.90;;;;;;4843385;29;20643;-79
2024/02/29 10:12:44;;;;;;;23.53;21.30;;;6.60;99.90;;;;;;4842727;29;20199;-78
2024/02/29 10:15:11;;;;;;;21.97;19.87;;;6.90;99.90;;;;;;4859373;29;20293;-79
2024/02/29 10:17:38;;;;;;;21.97;19.90;;;7.10;99.90;;;;;;4844790;29;20231;-79
2024/02/29 10:20:10;;;;;;;22.77;20.57;;;7.30;99.90;;;;;;4844779;29;20701;-79
2024/02/29 10:22:42;;;;;;;23.73;21.23;;;7.40;99.90;;;;;;4843882;29;20297;-79
2024/02/29 10:25:11;;;;;;;23.73;21.53;;;7.50;99.90;;;;;;4835185;29;20595;-79
2024/02/29 10:27:38;;;;;;;23.33;21.07;;;7.60;99.90;;;;;;4845258;29;20293;-79
2024/02/29 10:30:09;;;;;;;23.30;21.00;;;7.70;99.90;;;;;;4847169;29;20349;-79
2024/02/29 10:32:36;;;;;;;22.80;20.27;;;7.80;99.90;;;;;;4843772;29;20309;-79
2024/02/29 10:35:17;;;;;;;23.10;20.80;;;7.80;99.90;;;;;;4842444;29;20302;-79
2024/02/29 10:37:45;;;;;;;23.00;20.83;;;7.90;99.90;;;;;;4842989;29;20214;-79
2024/02/29 10:40:12;;;;;;;22.93;20.67;;;7.90;99.90;;;;;;4842054;29;20264;-79
2024/02/29 10:42:40;;;;;;;18.87;16.53;;;8.00;99.90;;;;;;4844263;29;20301;-79
2024/02/29 10:45:12;;;;;;;18.83;14.57;;;8.00;99.90;;;;;;4847194;29;20267;-79
2024/02/29 10:47:41;;;;;;;18.43;15.27;;;8.10;99.90;;;;;;4844656;29;20203;-79
2024/02/29 10:50:14;;;;;;;19.20;16.47;;;8.20;99.90;;;;;;4844217;29;20632;-79
2024/02/29 10:52:49;;;;;;;19.80;14.97;;;8.30;99.90;;;;;;4850521;29;20203;-80
2024/02/29 10:55:20;;;;;;;24.13;21.73;;;8.30;99.90;;;;;;4853634;29;20221;-79
2024/02/29 10:57:56;;;;;;;18.60;15.13;;;8.40;99.90;;;;;;4842883;29;20217;-79
2024/02/29 11:00:24;;;;;;;18.57;15.17;;;8.40;99.90;;;;;;4843470;29;20194;-79
2024/02/29 11:02:51;;;;;;;25.03;22.57;;;8.50;99.90;;;;;;4844247;29;20226;-80
2024/02/29 11:05:19;;;;;;;24.07;21.67;;;8.50;99.90;;;;;;4844304;29;20236;-80
2024/02/29 11:07:48;;;;;;;22.77;20.47;;;8.50;99.90;;;;;;4842538;29;20207;-81
2024/02/29 11:10:16;;;;;;;22.63;20.33;;;8.60;99.90;;;;;;4841087;29;20258;-78
2024/02/29 11:12:48;;;;;;;23.10;20.73;;;8.70;99.90;;;;;;4841809;29;20289;-79
2024/02/29 11:15:15;;;;;;;23.73;21.43;;;8.80;99.90;;;;;;4844717;29;20230;-80
2024/02/29 11:17:45;;;;;;;23.93;21.63;;;8.90;99.90;;;;;;4855733;29;20238;-79
2024/02/29 11:20:20;;;;;;;23.30;21.00;;;9.00;99.90;;;;;;4852236;29;20206;-80
2024/02/29 11:22:48;;;;;;;26.37;23.60;;;9.00;99.90;;;;;;4852118;29;20279;-80
2024/02/29 11:25:22;;;;;;;26.70;23.97;;;9.00;99.90;;;;;;4850747;29;20218;-78
2024/02/29 11:27:50;;;;;;;27.03;24.47;;;9.00;99.90;;;;;;4848737;29;20277;-79
2024/02/29 11:30:23;;;;;;;27.33;24.53;;;9.00;99.90;;;;;;4849551;29;20206;-79
2024/02/29 11:32:51;;;;;;;25.70;23.17;;;9.00;99.90;;;;;;4846146;29;20259;-79
2024/02/29 11:35:18;;;;;;;26.53;23.83;;;9.00;99.90;;;;;;4855269;29;20298;-79
2024/02/29 11:37:46;;;;;;;26.50;23.83;;;9.10;99.90;;;;;;4845209;29;20207;-79
2024/02/29 11:40:16;;;;;;;26.23;23.50;;;9.10;99.90;;;;;;4851589;29;20210;-80
2024/02/29 11:42:43;;;;;;;26.60;23.90;;;9.00;99.90;;;;;;4849017;29;20231;-81
2024/02/29 11:45:21;;;;;;;24.33;21.80;;;9.10;99.90;;;;;;4849221;29;20305;-80
2024/02/29 11:47:49;;;;;;;24.47;22.07;;;9.20;99.90;;;;;;4851978;29;20206;-81
2024/02/29 11:50:17;;;;;;;24.77;22.37;;;9.30;99.90;;;;;;4850885;29;20234;-79
2024/02/29 11:52:44;;;;;;;23.50;21.07;;;9.40;99.90;;;;;;4851765;29;20226;-80
2024/02/29 11:55:11;;;;;;;23.83;21.43;;;9.50;99.90;;;;;;4855731;29;20294;-80
2024/02/29 11:57:41;;;;;;;24.30;21.80;;;9.60;99.90;;;;;;4850969;29;20264;-79
2024/02/29 12:00:09;;;;;;;23.77;21.37;;;9.70;99.90;;;;;;4842166;29;20207;-77
2024/02/29 12:02:37;;;;;;;24.20;21.83;;;9.80;99.90;;;;;;4847994;29;20770;-78
2024/02/29 12:05:04;;;;;;;22.20;20.00;;;9.80;99.90;;;;;;4841782;29;20726;-77
2024/02/29 12:07:33;;;;;;;23.90;21.50;;;9.80;99.90;;;;;;4837860;29;20211;-83
2024/02/29 12:10:01;;;;;;;22.00;19.80;;;9.80;99.90;;;;;;4842384;29;20588;-77
2024/02/29 12:12:29;;;;;;;23.10;20.80;;;9.90;99.90;;;;;;4842650;29;20207;-77
2024/02/29 12:14:57;;;;;;;23.70;21.27;;;9.90;99.90;;;;;;4841186;29;20234;-77
2024/02/29 12:17:26;;;;;;;25.23;22.60;;;9.90;99.90;;;;;;4842859;29;20676;-78
2024/02/29 12:19:55;;;;;;;23.93;21.57;;;9.90;99.90;;;;;;4840890;29;20218;-77
2024/02/29 12:22:21;;;;;;;24.93;22.33;;;10.00;99.90;;;;;;4844364;29;20234;-79
2024/02/29 12:24:48;;;;;;;23.23;20.80;;;10.00;99.90;;;;;;4845318;29;20697;-78
2024/02/29 12:27:15;;;;;;;20.60;18.50;;;10.10;99.90;;;;;;4844695;29;20202;-77
2024/02/29 12:29:42;;;;;;;21.07;18.97;;;10.20;99.90;;;;;;4844457;29;20218;-77
2024/02/29 12:32:11;;;;;;;21.77;19.10;;;10.20;99.90;;;;;;4845558;29;20704;-78
2024/02/29 12:34:38;;;;;;;20.53;18.60;;;10.30;99.90;;;;;;4847518;29;20226;-83
2024/02/29 12:37:05;;;;;;;21.27;19.23;;;10.30;99.90;;;;;;4848130;29;20234;-79